sensor_id;sensor_type;location;lat;lon;timestamp;P1;durP1;ratioP1;P2;durP2;ratioP2
66127;SDS011;52925;52.436;-1.952;2023-08-06T00:00:30;4.73;;;2.30;;
66127;SDS011;52925;52.436;-1.952;2023-08-06T00:01:50;2.60;;;2.23;;
66127;SDS011;52925;52.436;-1.952;2023-08-06T00:03:13;4.70;;;2.60;;
66127;SDS011;52925;52.436;-1.952;2023-08-06T00:04:32;4.03;;;2.40;;
66127;SDS011;52925;52.436;-1.952;2023-08-06T00:05:53;3.33;;;2.30;;
66127;SDS011;52925;52.436;-1.952;2023-08-06T00:07:13;4.93;;;2.17;;
66127;SDS011;52925;52.436;-1.952;2023-08-06T00:08:34;3.70;;;2.43;;
66127;SDS011;52925;52.436;-1.952;2023-08-06T00:09:54;3.77;;;2.10;;
66127;SDS011;52925;52.436;-1.952;2023-08-06T00:11:15;3.90;;;2.43;;
66127;SDS011;52925;52.436;-1.952;2023-08-06T00:12:35;2.90;;;2.40;;
66127;SDS011;52925;52.436;-1.952;2023-08-06T00:13:55;3.50;;;2.30;;
66127;SDS011;52925;52.436;-1.952;2023-08-06T00:15:16;4.03;;;2.33;;
66127;SDS011;52925;52.436;-1.952;2023-08-06T00:16:36;4.30;;;2.47;;
66127;SDS011;52925;52.436;-1.952;2023-08-06T00:17:57;4.63;;;2.67;;
66127;SDS011;52925;52.436;-1.952;2023-08-06T00:19:19;2.87;;;2.47;;
66127;SDS011;52925;52.436;-1.952;2023-08-06T00:20:39;2.90;;;2.20;;
66127;SDS011;52925;52.436;-1.952;2023-08-06T00:21:59;2.70;;;2.13;;
66127;SDS011;52925;52.436;-1.952;2023-08-06T00:23:20;5.27;;;2.50;;
66127;SDS011;52925;52.436;-1.952;2023-08-06T00:24:41;4.43;;;2.20;;
66127;SDS011;52925;52.436;-1.952;2023-08-06T00:26:02;3.13;;;2.13;;
66127;SDS011;52925;52.436;-1.952;2023-08-06T00:27:21;3.63;;;2.10;;
66127;SDS011;52925;52.436;-1.952;2023-08-06T00:28:42;5.37;;;2.50;;
66127;SDS011;52925;52.436;-1.952;2023-08-06T00:30:04;3.50;;;2.30;;
66127;SDS011;52925;52.436;-1.952;2023-08-06T00:31:24;4.03;;;2.30;;
66127;SDS011;52925;52.436;-1.952;2023-08-06T00:32:45;5.97;;;2.30;;
66127;SDS011;52925;52.436;-1.952;2023-08-06T00:34:06;3.87;;;2.47;;
66127;SDS011;52925;52.436;-1.952;2023-08-06T00:35:28;3.60;;;2.60;;
66127;SDS011;52925;52.436;-1.952;2023-08-06T00:36:49;3.73;;;2.47;;
66127;SDS011;52925;52.436;-1.952;2023-08-06T00:38:10;4.07;;;2.20;;
66127;SDS011;52925;52.436;-1.952;2023-08-06T00:39:29;3.17;;;2.20;;
66127;SDS011;52925;52.436;-1.952;2023-08-06T00:40:50;4.03;;;2.30;;
66127;SDS011;52925;52.436;-1.952;2023-08-06T00:42:11;2.97;;;2.10;;
66127;SDS011;52925;52.436;-1.952;2023-08-06T00:43:32;2.87;;;2.10;;
66127;SDS011;52925;52.436;-1.952;2023-08-06T00:44:52;2.70;;;2.27;;
66127;SDS011;52925;52.436;-1.952;2023-08-06T00:46:12;4.67;;;2.70;;
66127;SDS011;52925;52.436;-1.952;2023-08-06T00:47:32;4.47;;;2.30;;
66127;SDS011;52925;52.436;-1.952;2023-08-06T00:48:53;3.40;;;2.73;;
66127;SDS011;52925;52.436;-1.952;2023-08-06T00:50:15;2.80;;;2.23;;
66127;SDS011;52925;52.436;-1.952;2023-08-06T00:51:38;6.00;;;2.70;;
66127;SDS011;52925;52.436;-1.952;2023-08-06T00:52:57;3.27;;;2.67;;
66127;SDS011;52925;52.436;-1.952;2023-08-06T00:54:19;3.17;;;2.60;;
66127;SDS011;52925;52.436;-1.952;2023-08-06T00:55:39;4.10;;;2.37;;
66127;SDS011;52925;52.436;-1.952;2023-08-06T00:57:01;3.57;;;2.47;;
66127;SDS011;52925;52.436;-1.952;2023-08-06T00:58:21;3.30;;;2.43;;
66127;SDS011;52925;52.436;-1.952;2023-08-06T00:59:42;3.10;;;2.70;;
66127;SDS011;52925;52.436;-1.952;2023-08-06T01:01:02;4.37;;;2.70;;
66127;SDS011;52925;52.436;-1.952;2023-08-06T01:02:23;3.90;;;2.40;;
66127;SDS011;52925;52.436;-1.952;2023-08-06T01:03:43;3.03;;;2.67;;
66127;SDS011;52925;52.436;-1.952;2023-08-06T01:05:04;4.87;;;2.70;;
66127;SDS011;52925;52.436;-1.952;2023-08-06T01:06:31;4.23;;;2.80;;
66127;SDS011;52925;52.436;-1.952;2023-08-06T01:08:05;4.53;;;2.93;;
66127;SDS011;52925;52.436;-1.952;2023-08-06T01:09:35;3.77;;;3.13;;
66127;SDS011;52925;52.436;-1.952;2023-08-06T01:11:07;3.80;;;2.93;;
66127;SDS011;52925;52.436;-1.952;2023-08-06T01:12:34;2.80;;;2.40;;
66127;SDS011;52925;52.436;-1.952;2023-08-06T01:14:04;3.30;;;2.60;;
66127;SDS011;52925;52.436;-1.952;2023-08-06T01:15:29;6.13;;;2.87;;
66127;SDS011;52925;52.436;-1.952;2023-08-06T01:16:51;3.47;;;2.90;;
66127;SDS011;52925;52.436;-1.952;2023-08-06T01:18:14;5.37;;;3.10;;
66127;SDS011;52925;52.436;-1.952;2023-08-06T01:19:34;4.47;;;2.90;;
66127;SDS011;52925;52.436;-1.952;2023-08-06T01:20:57;4.80;;;3.47;;
66127;SDS011;52925;52.436;-1.952;2023-08-06T01:22:16;6.37;;;2.93;;
66127;SDS011;52925;52.436;-1.952;2023-08-06T01:23:37;3.43;;;3.10;;
66127;SDS011;52925;52.436;-1.952;2023-08-06T01:24:57;4.60;;;3.13;;
66127;SDS011;52925;52.436;-1.952;2023-08-06T01:26:19;3.57;;;3.23;;
66127;SDS011;52925;52.436;-1.952;2023-08-06T01:27:46;5.70;;;3.17;;
66127;SDS011;52925;52.436;-1.952;2023-08-06T01:29:10;7.33;;;2.97;;
66127;SDS011;52925;52.436;-1.952;2023-08-06T01:30:34;5.00;;;2.50;;
66127;SDS011;52925;52.436;-1.952;2023-08-06T01:32:01;5.97;;;2.97;;
66127;SDS011;52925;52.436;-1.952;2023-08-06T01:33:22;3.63;;;2.60;;
66127;SDS011;52925;52.436;-1.952;2023-08-06T01:34:43;5.97;;;2.77;;
66127;SDS011;52925;52.436;-1.952;2023-08-06T01:36:07;6.73;;;3.17;;
66127;SDS011;52925;52.436;-1.952;2023-08-06T01:37:28;4.60;;;2.83;;
66127;SDS011;52925;52.436;-1.952;2023-08-06T01:38:50;4.13;;;2.70;;
66127;SDS011;52925;52.436;-1.952;2023-08-06T01:40:13;2.97;;;2.50;;
66127;SDS011;52925;52.436;-1.952;2023-08-06T01:41:33;4.00;;;3.03;;
66127;SDS011;52925;52.436;-1.952;2023-08-06T01:42:54;3.47;;;2.70;;
66127;SDS011;52925;52.436;-1.952;2023-08-06T01:44:14;4.30;;;2.70;;
66127;SDS011;52925;52.436;-1.952;2023-08-06T01:45:35;4.70;;;2.90;;
66127;SDS011;52925;52.436;-1.952;2023-08-06T01:46:55;3.50;;;2.37;;
66127;SDS011;52925;52.436;-1.952;2023-08-06T01:48:16;5.70;;;3.00;;
66127;SDS011;52925;52.436;-1.952;2023-08-06T01:49:36;4.43;;;2.60;;
66127;SDS011;52925;52.436;-1.952;2023-08-06T01:50:57;4.73;;;3.00;;
66127;SDS011;52925;52.436;-1.952;2023-08-06T01:52:19;5.60;;;3.30;;
66127;SDS011;52925;52.436;-1.952;2023-08-06T01:53:40;5.03;;;2.80;;
66127;SDS011;52925;52.436;-1.952;2023-08-06T01:55:00;3.40;;;2.50;;
66127;SDS011;52925;52.436;-1.952;2023-08-06T01:56:20;3.63;;;2.47;;
66127;SDS011;52925;52.436;-1.952;2023-08-06T01:57:40;4.63;;;2.80;;
66127;SDS011;52925;52.436;-1.952;2023-08-06T01:59:01;4.90;;;2.90;;
66127;SDS011;52925;52.436;-1.952;2023-08-06T02:00:21;3.90;;;2.60;;
66127;SDS011;52925;52.436;-1.952;2023-08-06T02:01:44;4.67;;;2.37;;
66127;SDS011;52925;52.436;-1.952;2023-08-06T02:03:04;3.73;;;2.67;;
66127;SDS011;52925;52.436;-1.952;2023-08-06T02:04:25;4.03;;;2.47;;
66127;SDS011;52925;52.436;-1.952;2023-08-06T02:05:46;3.33;;;2.53;;
66127;SDS011;52925;52.436;-1.952;2023-08-06T02:07:07;3.47;;;2.40;;
66127;SDS011;52925;52.436;-1.952;2023-08-06T02:08:28;3.20;;;2.43;;
66127;SDS011;52925;52.436;-1.952;2023-08-06T02:09:49;5.37;;;2.60;;
66127;SDS011;52925;52.436;-1.952;2023-08-06T02:11:09;3.03;;;2.30;;
66127;SDS011;52925;52.436;-1.952;2023-08-06T02:12:30;4.60;;;2.97;;
66127;SDS011;52925;52.436;-1.952;2023-08-06T02:13:50;3.63;;;2.87;;
66127;SDS011;52925;52.436;-1.952;2023-08-06T02:15:11;3.30;;;2.57;;
66127;SDS011;52925;52.436;-1.952;2023-08-06T02:16:31;3.00;;;2.50;;
66127;SDS011;52925;52.436;-1.952;2023-08-06T02:17:52;2.70;;;2.27;;
66127;SDS011;52925;52.436;-1.952;2023-08-06T02:19:12;4.00;;;2.40;;
66127;SDS011;52925;52.436;-1.952;2023-08-06T02:20:33;4.30;;;2.40;;
66127;SDS011;52925;52.436;-1.952;2023-08-06T02:21:53;3.20;;;2.40;;
66127;SDS011;52925;52.436;-1.952;2023-08-06T02:23:14;3.30;;;2.47;;
66127;SDS011;52925;52.436;-1.952;2023-08-06T02:24:36;4.20;;;2.40;;
66127;SDS011;52925;52.436;-1.952;2023-08-06T02:25:58;3.40;;;2.40;;
66127;SDS011;52925;52.436;-1.952;2023-08-06T02:27:18;3.33;;;2.60;;
66127;SDS011;52925;52.436;-1.952;2023-08-06T02:28:39;3.67;;;2.70;;
66127;SDS011;52925;52.436;-1.952;2023-08-06T02:29:58;2.43;;;2.20;;
66127;SDS011;52925;52.436;-1.952;2023-08-06T02:31:19;3.67;;;2.17;;
66127;SDS011;52925;52.436;-1.952;2023-08-06T02:32:39;5.73;;;2.80;;
66127;SDS011;52925;52.436;-1.952;2023-08-06T02:34:00;6.33;;;2.33;;
66127;SDS011;52925;52.436;-1.952;2023-08-06T02:35:20;6.67;;;2.60;;
66127;SDS011;52925;52.436;-1.952;2023-08-06T02:36:41;2.80;;;2.40;;
66127;SDS011;52925;52.436;-1.952;2023-08-06T02:38:01;4.83;;;2.50;;
66127;SDS011;52925;52.436;-1.952;2023-08-06T02:39:22;3.20;;;2.00;;
66127;SDS011;52925;52.436;-1.952;2023-08-06T02:40:44;3.07;;;2.40;;
66127;SDS011;52925;52.436;-1.952;2023-08-06T02:42:06;3.10;;;2.27;;
66127;SDS011;52925;52.436;-1.952;2023-08-06T02:43:26;3.27;;;2.30;;
66127;SDS011;52925;52.436;-1.952;2023-08-06T02:44:47;3.03;;;2.47;;
66127;SDS011;52925;52.436;-1.952;2023-08-06T02:46:07;3.37;;;2.13;;
66127;SDS011;52925;52.436;-1.952;2023-08-06T02:47:28;2.50;;;2.30;;
66127;SDS011;52925;52.436;-1.952;2023-08-06T02:48:48;4.17;;;2.30;;
66127;SDS011;52925;52.436;-1.952;2023-08-06T02:50:09;3.33;;;2.30;;
66127;SDS011;52925;52.436;-1.952;2023-08-06T02:51:29;5.10;;;2.50;;
66127;SDS011;52925;52.436;-1.952;2023-08-06T02:52:50;3.77;;;2.60;;
66127;SDS011;52925;52.436;-1.952;2023-08-06T02:54:09;2.50;;;2.00;;
66127;SDS011;52925;52.436;-1.952;2023-08-06T02:55:30;4.67;;;2.67;;
66127;SDS011;52925;52.436;-1.952;2023-08-06T02:56:52;3.80;;;2.63;;
66127;SDS011;52925;52.436;-1.952;2023-08-06T02:58:23;4.13;;;2.33;;
66127;SDS011;52925;52.436;-1.952;2023-08-06T02:59:59;3.40;;;2.23;;
66127;SDS011;52925;52.436;-1.952;2023-08-06T03:01:19;4.43;;;2.60;;
66127;SDS011;52925;52.436;-1.952;2023-08-06T03:02:47;5.23;;;2.97;;
66127;SDS011;52925;52.436;-1.952;2023-08-06T03:04:20;3.43;;;2.10;;
66127;SDS011;52925;52.436;-1.952;2023-08-06T03:05:50;3.83;;;2.20;;
66127;SDS011;52925;52.436;-1.952;2023-08-06T03:07:23;3.53;;;2.60;;
66127;SDS011;52925;52.436;-1.952;2023-08-06T03:08:48;4.57;;;2.90;;
66127;SDS011;52925;52.436;-1.952;2023-08-06T03:10:08;3.20;;;2.33;;
66127;SDS011;52925;52.436;-1.952;2023-08-06T03:11:29;3.20;;;2.50;;
66127;SDS011;52925;52.436;-1.952;2023-08-06T03:12:57;4.90;;;2.40;;
66127;SDS011;52925;52.436;-1.952;2023-08-06T03:14:18;2.67;;;2.43;;
66127;SDS011;52925;52.436;-1.952;2023-08-06T03:15:39;5.60;;;2.70;;
66127;SDS011;52925;52.436;-1.952;2023-08-06T03:17:02;4.17;;;2.30;;
66127;SDS011;52925;52.436;-1.952;2023-08-06T03:18:23;3.93;;;2.70;;
66127;SDS011;52925;52.436;-1.952;2023-08-06T03:19:45;2.80;;;2.23;;
66127;SDS011;52925;52.436;-1.952;2023-08-06T03:21:05;4.37;;;2.70;;
66127;SDS011;52925;52.436;-1.952;2023-08-06T03:22:26;4.07;;;2.43;;
66127;SDS011;52925;52.436;-1.952;2023-08-06T03:23:46;4.97;;;2.50;;
66127;SDS011;52925;52.436;-1.952;2023-08-06T03:25:10;4.47;;;2.47;;
66127;SDS011;52925;52.436;-1.952;2023-08-06T03:26:31;3.27;;;2.53;;
66127;SDS011;52925;52.436;-1.952;2023-08-06T03:27:52;5.33;;;3.00;;
66127;SDS011;52925;52.436;-1.952;2023-08-06T03:29:14;4.40;;;2.60;;
66127;SDS011;52925;52.436;-1.952;2023-08-06T03:30:36;3.80;;;2.23;;
66127;SDS011;52925;52.436;-1.952;2023-08-06T03:31:56;5.03;;;2.30;;
66127;SDS011;52925;52.436;-1.952;2023-08-06T03:33:17;5.30;;;2.60;;
66127;SDS011;52925;52.436;-1.952;2023-08-06T03:34:38;3.23;;;2.30;;
66127;SDS011;52925;52.436;-1.952;2023-08-06T03:35:59;6.40;;;2.60;;
66127;SDS011;52925;52.436;-1.952;2023-08-06T03:37:19;3.63;;;2.20;;
66127;SDS011;52925;52.436;-1.952;2023-08-06T03:38:40;3.17;;;2.20;;
66127;SDS011;52925;52.436;-1.952;2023-08-06T03:40:02;3.40;;;2.10;;
66127;SDS011;52925;52.436;-1.952;2023-08-06T03:41:24;5.23;;;2.30;;
66127;SDS011;52925;52.436;-1.952;2023-08-06T03:42:44;4.17;;;2.50;;
66127;SDS011;52925;52.436;-1.952;2023-08-06T03:44:06;3.03;;;2.30;;
66127;SDS011;52925;52.436;-1.952;2023-08-06T03:45:26;3.67;;;2.43;;
66127;SDS011;52925;52.436;-1.952;2023-08-06T03:46:47;3.43;;;2.40;;
66127;SDS011;52925;52.436;-1.952;2023-08-06T03:48:07;3.07;;;2.27;;
66127;SDS011;52925;52.436;-1.952;2023-08-06T03:49:29;4.97;;;2.53;;
66127;SDS011;52925;52.436;-1.952;2023-08-06T03:50:49;4.87;;;2.33;;
66127;SDS011;52925;52.436;-1.952;2023-08-06T03:52:10;3.07;;;2.30;;
66127;SDS011;52925;52.436;-1.952;2023-08-06T03:53:31;4.63;;;2.30;;
66127;SDS011;52925;52.436;-1.952;2023-08-06T03:54:52;2.87;;;2.03;;
66127;SDS011;52925;52.436;-1.952;2023-08-06T03:56:11;6.10;;;2.20;;
66127;SDS011;52925;52.436;-1.952;2023-08-06T03:57:32;4.70;;;2.30;;
66127;SDS011;52925;52.436;-1.952;2023-08-06T03:58:52;2.83;;;2.00;;
66127;SDS011;52925;52.436;-1.952;2023-08-06T04:00:13;3.27;;;1.90;;
66127;SDS011;52925;52.436;-1.952;2023-08-06T04:01:42;4.10;;;2.30;;
66127;SDS011;52925;52.436;-1.952;2023-08-06T04:03:04;3.80;;;2.03;;
66127;SDS011;52925;52.436;-1.952;2023-08-06T04:04:23;3.30;;;2.07;;
66127;SDS011;52925;52.436;-1.952;2023-08-06T04:05:44;5.17;;;2.10;;
66127;SDS011;52925;52.436;-1.952;2023-08-06T04:07:04;2.30;;;1.97;;
66127;SDS011;52925;52.436;-1.952;2023-08-06T04:08:25;2.90;;;1.87;;
66127;SDS011;52925;52.436;-1.952;2023-08-06T04:09:52;2.70;;;2.00;;
66127;SDS011;52925;52.436;-1.952;2023-08-06T04:11:14;6.37;;;2.00;;
66127;SDS011;52925;52.436;-1.952;2023-08-06T04:12:35;3.53;;;1.80;;
66127;SDS011;52925;52.436;-1.952;2023-08-06T04:13:58;3.00;;;1.80;;
66127;SDS011;52925;52.436;-1.952;2023-08-06T04:15:18;2.77;;;1.70;;
66127;SDS011;52925;52.436;-1.952;2023-08-06T04:16:39;3.47;;;1.97;;
66127;SDS011;52925;52.436;-1.952;2023-08-06T04:18:00;4.70;;;2.30;;
66127;SDS011;52925;52.436;-1.952;2023-08-06T04:19:21;6.20;;;2.33;;
66127;SDS011;52925;52.436;-1.952;2023-08-06T04:20:44;3.93;;;2.03;;
66127;SDS011;52925;52.436;-1.952;2023-08-06T04:22:06;3.30;;;2.03;;
66127;SDS011;52925;52.436;-1.952;2023-08-06T04:23:26;5.13;;;2.00;;
66127;SDS011;52925;52.436;-1.952;2023-08-06T04:24:51;3.20;;;1.93;;
66127;SDS011;52925;52.436;-1.952;2023-08-06T04:26:11;2.30;;;1.53;;
66127;SDS011;52925;52.436;-1.952;2023-08-06T04:27:32;7.20;;;2.20;;
66127;SDS011;52925;52.436;-1.952;2023-08-06T04:28:52;3.77;;;1.70;;
66127;SDS011;52925;52.436;-1.952;2023-08-06T04:30:13;3.73;;;1.70;;
66127;SDS011;52925;52.436;-1.952;2023-08-06T04:31:34;3.83;;;2.10;;
66127;SDS011;52925;52.436;-1.952;2023-08-06T04:32:56;4.77;;;2.07;;
66127;SDS011;52925;52.436;-1.952;2023-08-06T04:34:19;5.10;;;1.70;;
66127;SDS011;52925;52.436;-1.952;2023-08-06T04:35:40;2.57;;;1.83;;
66127;SDS011;52925;52.436;-1.952;2023-08-06T04:37:00;5.97;;;1.80;;
66127;SDS011;52925;52.436;-1.952;2023-08-06T04:38:22;5.40;;;2.00;;
66127;SDS011;52925;52.436;-1.952;2023-08-06T04:39:43;2.80;;;1.63;;
66127;SDS011;52925;52.436;-1.952;2023-08-06T04:41:03;5.60;;;2.07;;
66127;SDS011;52925;52.436;-1.952;2023-08-06T04:42:23;4.53;;;1.77;;
66127;SDS011;52925;52.436;-1.952;2023-08-06T04:43:44;3.37;;;1.90;;
66127;SDS011;52925;52.436;-1.952;2023-08-06T04:45:05;5.77;;;1.80;;
66127;SDS011;52925;52.436;-1.952;2023-08-06T04:46:28;3.83;;;2.10;;
66127;SDS011;52925;52.436;-1.952;2023-08-06T04:47:48;3.57;;;1.60;;
66127;SDS011;52925;52.436;-1.952;2023-08-06T04:49:09;2.23;;;1.50;;
66127;SDS011;52925;52.436;-1.952;2023-08-06T04:50:30;3.47;;;1.93;;
66127;SDS011;52925;52.436;-1.952;2023-08-06T04:51:51;3.87;;;2.00;;
66127;SDS011;52925;52.436;-1.952;2023-08-06T04:53:11;7.30;;;1.87;;
66127;SDS011;52925;52.436;-1.952;2023-08-06T04:54:33;5.37;;;2.10;;
66127;SDS011;52925;52.436;-1.952;2023-08-06T04:55:53;4.13;;;2.00;;
66127;SDS011;52925;52.436;-1.952;2023-08-06T04:57:14;3.23;;;1.87;;
66127;SDS011;52925;52.436;-1.952;2023-08-06T04:58:34;2.47;;;1.87;;
66127;SDS011;52925;52.436;-1.952;2023-08-06T04:59:54;8.47;;;2.10;;
66127;SDS011;52925;52.436;-1.952;2023-08-06T05:01:15;3.07;;;1.80;;
66127;SDS011;52925;52.436;-1.952;2023-08-06T05:02:36;3.93;;;1.73;;
66127;SDS011;52925;52.436;-1.952;2023-08-06T05:04:04;3.67;;;1.90;;
66127;SDS011;52925;52.436;-1.952;2023-08-06T05:05:25;4.33;;;1.83;;
66127;SDS011;52925;52.436;-1.952;2023-08-06T05:06:47;4.43;;;2.10;;
66127;SDS011;52925;52.436;-1.952;2023-08-06T05:08:13;3.50;;;1.70;;
66127;SDS011;52925;52.436;-1.952;2023-08-06T05:09:34;4.27;;;2.00;;
66127;SDS011;52925;52.436;-1.952;2023-08-06T05:10:55;3.43;;;1.70;;
66127;SDS011;52925;52.436;-1.952;2023-08-06T05:12:14;5.00;;;2.03;;
66127;SDS011;52925;52.436;-1.952;2023-08-06T05:13:35;6.97;;;1.63;;
66127;SDS011;52925;52.436;-1.952;2023-08-06T05:14:55;5.00;;;1.87;;
66127;SDS011;52925;52.436;-1.952;2023-08-06T05:16:16;5.87;;;2.10;;
66127;SDS011;52925;52.436;-1.952;2023-08-06T05:17:36;3.77;;;1.90;;
66127;SDS011;52925;52.436;-1.952;2023-08-06T05:18:57;5.83;;;2.23;;
66127;SDS011;52925;52.436;-1.952;2023-08-06T05:20:17;5.17;;;1.93;;
66127;SDS011;52925;52.436;-1.952;2023-08-06T05:21:38;2.77;;;1.60;;
66127;SDS011;52925;52.436;-1.952;2023-08-06T05:22:59;3.17;;;1.60;;
66127;SDS011;52925;52.436;-1.952;2023-08-06T05:24:20;2.87;;;1.87;;
66127;SDS011;52925;52.436;-1.952;2023-08-06T05:25:40;2.47;;;1.90;;
66127;SDS011;52925;52.436;-1.952;2023-08-06T05:27:01;2.70;;;1.80;;
66127;SDS011;52925;52.436;-1.952;2023-08-06T05:28:21;3.90;;;1.67;;
66127;SDS011;52925;52.436;-1.952;2023-08-06T05:29:42;3.97;;;2.17;;
66127;SDS011;52925;52.436;-1.952;2023-08-06T05:31:03;4.13;;;1.93;;
66127;SDS011;52925;52.436;-1.952;2023-08-06T05:32:24;3.47;;;1.50;;
66127;SDS011;52925;52.436;-1.952;2023-08-06T05:33:44;4.77;;;1.93;;
66127;SDS011;52925;52.436;-1.952;2023-08-06T05:35:05;3.10;;;1.63;;
66127;SDS011;52925;52.436;-1.952;2023-08-06T05:36:25;4.30;;;1.73;;
66127;SDS011;52925;52.436;-1.952;2023-08-06T05:37:47;2.90;;;1.63;;
66127;SDS011;52925;52.436;-1.952;2023-08-06T05:39:08;3.73;;;1.93;;
66127;SDS011;52925;52.436;-1.952;2023-08-06T05:40:29;3.27;;;1.60;;
66127;SDS011;52925;52.436;-1.952;2023-08-06T05:41:49;3.17;;;1.83;;
66127;SDS011;52925;52.436;-1.952;2023-08-06T05:43:11;2.67;;;1.50;;
66127;SDS011;52925;52.436;-1.952;2023-08-06T05:44:30;4.40;;;1.70;;
66127;SDS011;52925;52.436;-1.952;2023-08-06T05:45:51;2.67;;;1.60;;
66127;SDS011;52925;52.436;-1.952;2023-08-06T05:47:11;7.83;;;1.67;;
66127;SDS011;52925;52.436;-1.952;2023-08-06T05:48:32;4.27;;;1.60;;
66127;SDS011;52925;52.436;-1.952;2023-08-06T05:49:52;4.17;;;1.73;;
66127;SDS011;52925;52.436;-1.952;2023-08-06T05:51:13;3.63;;;1.60;;
66127;SDS011;52925;52.436;-1.952;2023-08-06T05:52:35;4.13;;;1.77;;
66127;SDS011;52925;52.436;-1.952;2023-08-06T05:53:56;4.67;;;1.40;;
66127;SDS011;52925;52.436;-1.952;2023-08-06T05:55:20;2.53;;;1.30;;
66127;SDS011;52925;52.436;-1.952;2023-08-06T05:56:41;3.87;;;1.57;;
66127;SDS011;52925;52.436;-1.952;2023-08-06T05:58:01;4.40;;;1.50;;
66127;SDS011;52925;52.436;-1.952;2023-08-06T05:59:22;2.07;;;1.53;;
66127;SDS011;52925;52.436;-1.952;2023-08-06T06:00:42;2.60;;;1.57;;
66127;SDS011;52925;52.436;-1.952;2023-08-06T06:02:03;2.93;;;1.60;;
66127;SDS011;52925;52.436;-1.952;2023-08-06T06:03:23;2.83;;;1.30;;
66127;SDS011;52925;52.436;-1.952;2023-08-06T06:04:44;3.27;;;1.57;;
66127;SDS011;52925;52.436;-1.952;2023-08-06T06:06:04;2.67;;;1.63;;
66127;SDS011;52925;52.436;-1.952;2023-08-06T06:07:25;3.10;;;1.53;;
66127;SDS011;52925;52.436;-1.952;2023-08-06T06:08:44;4.37;;;1.47;;
66127;SDS011;52925;52.436;-1.952;2023-08-06T06:10:06;4.87;;;1.50;;
66127;SDS011;52925;52.436;-1.952;2023-08-06T06:11:28;2.63;;;1.50;;
66127;SDS011;52925;52.436;-1.952;2023-08-06T06:12:48;6.17;;;1.50;;
66127;SDS011;52925;52.436;-1.952;2023-08-06T06:14:08;2.07;;;1.33;;
66127;SDS011;52925;52.436;-1.952;2023-08-06T06:15:29;5.50;;;1.50;;
66127;SDS011;52925;52.436;-1.952;2023-08-06T06:16:49;4.80;;;1.60;;
66127;SDS011;52925;52.436;-1.952;2023-08-06T06:18:11;2.67;;;1.60;;
66127;SDS011;52925;52.436;-1.952;2023-08-06T06:19:32;2.70;;;1.53;;
66127;SDS011;52925;52.436;-1.952;2023-08-06T06:20:53;3.03;;;1.30;;
66127;SDS011;52925;52.436;-1.952;2023-08-06T06:22:13;4.37;;;1.40;;
66127;SDS011;52925;52.436;-1.952;2023-08-06T06:23:34;3.43;;;1.30;;
66127;SDS011;52925;52.436;-1.952;2023-08-06T06:24:54;2.97;;;1.30;;
66127;SDS011;52925;52.436;-1.952;2023-08-06T06:26:15;5.30;;;1.87;;
66127;SDS011;52925;52.436;-1.952;2023-08-06T06:27:36;1.80;;;1.27;;
66127;SDS011;52925;52.436;-1.952;2023-08-06T06:28:57;2.90;;;1.30;;
66127;SDS011;52925;52.436;-1.952;2023-08-06T06:30:17;5.70;;;1.50;;
66127;SDS011;52925;52.436;-1.952;2023-08-06T06:31:38;3.83;;;1.27;;
66127;SDS011;52925;52.436;-1.952;2023-08-06T06:32:58;2.47;;;1.17;;
66127;SDS011;52925;52.436;-1.952;2023-08-06T06:34:19;3.10;;;1.40;;
66127;SDS011;52925;52.436;-1.952;2023-08-06T06:35:39;4.77;;;1.50;;
66127;SDS011;52925;52.436;-1.952;2023-08-06T06:37:00;3.07;;;1.20;;
66127;SDS011;52925;52.436;-1.952;2023-08-06T06:38:20;4.47;;;1.43;;
66127;SDS011;52925;52.436;-1.952;2023-08-06T06:39:41;3.37;;;1.37;;
66127;SDS011;52925;52.436;-1.952;2023-08-06T06:41:01;1.70;;;1.30;;
66127;SDS011;52925;52.436;-1.952;2023-08-06T06:42:22;1.97;;;1.17;;
66127;SDS011;52925;52.436;-1.952;2023-08-06T06:43:45;4.13;;;1.50;;
66127;SDS011;52925;52.436;-1.952;2023-08-06T06:45:07;1.70;;;1.23;;
66127;SDS011;52925;52.436;-1.952;2023-08-06T06:46:28;2.57;;;1.30;;
66127;SDS011;52925;52.436;-1.952;2023-08-06T06:47:49;2.27;;;1.10;;
66127;SDS011;52925;52.436;-1.952;2023-08-06T06:49:10;3.77;;;1.30;;
66127;SDS011;52925;52.436;-1.952;2023-08-06T06:50:31;2.57;;;1.00;;
66127;SDS011;52925;52.436;-1.952;2023-08-06T06:51:51;2.07;;;1.10;;
66127;SDS011;52925;52.436;-1.952;2023-08-06T06:53:11;4.90;;;1.00;;
66127;SDS011;52925;52.436;-1.952;2023-08-06T06:54:31;2.67;;;1.10;;
66127;SDS011;52925;52.436;-1.952;2023-08-06T06:55:52;4.17;;;1.30;;
66127;SDS011;52925;52.436;-1.952;2023-08-06T06:57:12;4.13;;;1.30;;
66127;SDS011;52925;52.436;-1.952;2023-08-06T06:58:33;3.70;;;1.20;;
66127;SDS011;52925;52.436;-1.952;2023-08-06T06:59:54;4.00;;;1.03;;
66127;SDS011;52925;52.436;-1.952;2023-08-06T07:01:14;2.90;;;1.00;;
66127;SDS011;52925;52.436;-1.952;2023-08-06T07:02:34;4.07;;;1.20;;
66127;SDS011;52925;52.436;-1.952;2023-08-06T07:03:55;4.10;;;1.40;;
66127;SDS011;52925;52.436;-1.952;2023-08-06T07:05:16;3.03;;;1.30;;
66127;SDS011;52925;52.436;-1.952;2023-08-06T07:06:36;2.00;;;1.27;;
66127;SDS011;52925;52.436;-1.952;2023-08-06T07:07:57;5.23;;;1.30;;
66127;SDS011;52925;52.436;-1.952;2023-08-06T07:09:17;4.40;;;1.00;;
66127;SDS011;52925;52.436;-1.952;2023-08-06T07:10:37;3.70;;;1.10;;
66127;SDS011;52925;52.436;-1.952;2023-08-06T07:11:58;4.77;;;1.07;;
66127;SDS011;52925;52.436;-1.952;2023-08-06T07:13:18;3.80;;;1.20;;
66127;SDS011;52925;52.436;-1.952;2023-08-06T07:14:41;2.87;;;1.27;;
66127;SDS011;52925;52.436;-1.952;2023-08-06T07:16:03;1.60;;;1.07;;
66127;SDS011;52925;52.436;-1.952;2023-08-06T07:17:23;2.93;;;1.13;;
66127;SDS011;52925;52.436;-1.952;2023-08-06T07:18:44;3.10;;;1.20;;
66127;SDS011;52925;52.436;-1.952;2023-08-06T07:20:04;4.13;;;1.13;;
66127;SDS011;52925;52.436;-1.952;2023-08-06T07:21:26;2.30;;;1.10;;
66127;SDS011;52925;52.436;-1.952;2023-08-06T07:22:47;3.37;;;1.33;;
66127;SDS011;52925;52.436;-1.952;2023-08-06T07:24:09;3.07;;;1.10;;
66127;SDS011;52925;52.436;-1.952;2023-08-06T07:25:29;2.47;;;1.10;;
66127;SDS011;52925;52.436;-1.952;2023-08-06T07:26:50;3.37;;;0.90;;
66127;SDS011;52925;52.436;-1.952;2023-08-06T07:28:11;3.70;;;1.23;;
66127;SDS011;52925;52.436;-1.952;2023-08-06T07:29:32;2.50;;;1.10;;
66127;SDS011;52925;52.436;-1.952;2023-08-06T07:30:52;2.77;;;1.27;;
66127;SDS011;52925;52.436;-1.952;2023-08-06T07:32:14;2.87;;;1.20;;
66127;SDS011;52925;52.436;-1.952;2023-08-06T07:33:34;3.57;;;1.00;;
66127;SDS011;52925;52.436;-1.952;2023-08-06T07:34:55;2.10;;;0.90;;
66127;SDS011;52925;52.436;-1.952;2023-08-06T07:36:19;2.03;;;1.13;;
66127;SDS011;52925;52.436;-1.952;2023-08-06T07:37:39;2.80;;;1.13;;
66127;SDS011;52925;52.436;-1.952;2023-08-06T07:38:59;3.80;;;1.20;;
66127;SDS011;52925;52.436;-1.952;2023-08-06T07:40:21;2.47;;;1.30;;
66127;SDS011;52925;52.436;-1.952;2023-08-06T07:41:41;3.30;;;1.30;;
66127;SDS011;52925;52.436;-1.952;2023-08-06T07:43:02;1.90;;;1.10;;
66127;SDS011;52925;52.436;-1.952;2023-08-06T07:44:22;3.03;;;1.23;;
66127;SDS011;52925;52.436;-1.952;2023-08-06T07:45:43;2.00;;;1.20;;
66127;SDS011;52925;52.436;-1.952;2023-08-06T07:47:04;3.00;;;1.10;;
66127;SDS011;52925;52.436;-1.952;2023-08-06T07:48:26;3.40;;;1.27;;
66127;SDS011;52925;52.436;-1.952;2023-08-06T07:49:46;4.30;;;1.40;;
66127;SDS011;52925;52.436;-1.952;2023-08-06T07:51:07;3.33;;;1.30;;
66127;SDS011;52925;52.436;-1.952;2023-08-06T07:52:27;5.13;;;1.40;;
66127;SDS011;52925;52.436;-1.952;2023-08-06T07:53:48;4.07;;;1.40;;
66127;SDS011;52925;52.436;-1.952;2023-08-06T07:55:08;4.73;;;1.60;;
66127;SDS011;52925;52.436;-1.952;2023-08-06T07:56:29;3.33;;;1.60;;
66127;SDS011;52925;52.436;-1.952;2023-08-06T07:57:49;4.70;;;1.33;;
66127;SDS011;52925;52.436;-1.952;2023-08-06T07:59:10;5.03;;;1.57;;
66127;SDS011;52925;52.436;-1.952;2023-08-06T08:00:30;3.03;;;1.20;;
66127;SDS011;52925;52.436;-1.952;2023-08-06T08:01:50;5.37;;;1.37;;